Time;durP1;ratioP1;P1;durP2;ratioP2;P2;SDS_P1;SDS_P2;PMS_P1;PMS_P2;Temp;Humidity;BMP_temperature;BMP_pressure;BME280_temperature;BME280_humidity;BME280_pressure;Samples;Min_cycle;Max_cycle;Signal;HPM_P1;HPM_P2
2023/01/18 00:01:38;;;;;;;22.10;12.27;;;;;;;-2.91;100.00;98951.69;5244194;28;20021;-72
2023/01/18 00:04:09;;;;;;;21.30;10.93;;;;;;;-2.97;100.00;98955.88;5244048;28;20038;-73
2023/01/18 00:06:41;;;;;;;20.80;12.50;;;;;;;-2.97;100.00;98957.59;5244150;28;20393;-72
2023/01/18 00:09:12;;;;;;;24.93;11.80;;;;;;;-3.01;100.00;98946.50;5243813;28;20025;-72
2023/01/18 00:11:44;;;;;;;14.40;11.00;;;;;;;-3.04;100.00;98943.03;5244853;28;20108;-72
2023/01/18 00:14:15;;;;;;;17.63;12.07;;;;;;;-3.08;100.00;98949.81;5243893;28;20043;-73
2023/01/18 00:16:47;;;;;;;16.57;10.53;;;;;;;-3.07;100.00;98951.53;5242599;28;20045;-72
2023/01/18 00:19:18;;;;;;;25.20;12.13;;;;;;;-3.11;100.00;98947.22;5243982;28;20447;-73
2023/01/18 00:21:53;;;;;;;18.53;11.00;;;;;;;-3.13;100.00;98957.38;5244107;28;20457;-73
2023/01/18 00:24:26;;;;;;;20.52;11.30;;;;;;;-3.13;100.00;98956.53;5244094;28;20068;-73
2023/01/18 00:26:58;;;;;;;19.00;12.00;;;;;;;-3.12;100.00;98959.09;5243988;28;20029;-73
2023/01/18 00:29:30;;;;;;;22.07;12.33;;;;;;;-3.17;100.00;98958.19;5243627;28;20049;-73
2023/01/18 00:32:01;;;;;;;19.17;12.10;;;;;;;-3.19;100.00;98956.47;5243604;28;20032;-72
2023/01/18 00:34:33;;;;;;;16.00;11.10;;;;;;;-3.21;100.00;98960.69;5243566;28;20041;-72
2023/01/18 00:37:04;;;;;;;18.07;10.87;;;;;;;-3.25;100.00;98967.44;5243795;28;20028;-73
2023/01/18 00:39:35;;;;;;;20.67;11.93;;;;;;;-3.24;100.00;98968.28;5225891;28;20108;-73
2023/01/18 00:44:57;;;;;;;20.45;11.15;;;;;;;-3.30;100.00;98967.38;5243463;28;20120;-73
2023/01/18 00:47:28;;;;;;;17.63;11.03;;;;;;;-3.34;100.00;98965.59;5243851;28;20116;-73
2023/01/18 00:50:00;;;;;;;26.40;11.03;;;;;;;-3.36;100.00;98968.97;5243292;28;20025;-73
2023/01/18 00:52:33;;;;;;;18.43;11.70;;;;;;;-3.36;100.00;98979.19;5243250;28;20107;-73
2023/01/18 00:55:05;;;;;;;17.00;10.82;;;;;;;-3.38;100.00;98976.59;5242777;28;20026;-73
2023/01/18 00:57:37;;;;;;;18.27;10.43;;;;;;;-3.42;100.00;98968.91;5241904;28;20029;-73
2023/01/18 01:00:11;;;;;;;17.63;10.95;;;;;;;-3.40;100.00;98979.94;5241819;28;20041;-73
2023/01/18 01:02:42;;;;;;;16.00;10.80;;;;;;;-3.39;100.00;98977.44;5242539;28;20033;-73
2023/01/18 01:08:15;;;;;;;21.00;11.20;;;;;;;-3.43;100.00;98974.81;5243517;28;20033;-72
2023/01/18 01:10:49;;;;;;;16.75;10.95;;;;;;;-3.43;100.00;98983.34;5243606;28;20030;-72
2023/01/18 01:27:31;;;;;;;15.70;10.20;;;;;;;-3.57;100.00;98989.91;5243100;28;20049;-73
2023/01/18 01:30:02;;;;;;;18.53;10.20;;;;;;;-3.61;100.00;98988.97;5241800;28;20034;-73
2023/01/18 01:32:34;;;;;;;20.43;11.47;;;;;;;-3.56;100.00;98994.16;5242409;28;20033;-73
2023/01/18 01:35:05;;;;;;;17.20;10.30;;;;;;;-3.63;100.00;98998.31;5241206;28;20074;-73
2023/01/18 01:37:37;;;;;;;14.43;9.70;;;;;;;-3.68;100.00;98993.13;5242690;28;20026;-73
2023/01/18 01:40:09;;;;;;;21.13;11.77;;;;;;;-3.65;100.00;98999.97;5242351;28;20471;-73
2023/01/18 01:42:40;;;;;;;17.33;11.07;;;;;;;-3.71;100.00;99003.25;5241867;28;20549;-72
2023/01/18 01:45:12;;;;;;;24.07;9.90;;;;;;;-3.75;100.00;99014.25;5242365;28;20119;-73
2023/01/18 01:47:45;;;;;;;16.50;9.43;;;;;;;-3.75;100.00;99018.47;5241047;28;20040;-73
2023/01/18 01:50:27;;;;;;;20.55;10.50;;;;;;;-3.78;100.00;99016.75;5242168;28;20053;-72
2023/01/18 01:52:58;;;;;;;16.95;10.18;;;;;;;-3.86;100.00;99008.97;5242722;28;20057;-73
2023/01/18 01:55:38;;;;;;;21.00;10.73;;;;;;;-3.84;100.00;99016.63;5240546;28;20033;-73
2023/01/18 01:58:23;;;;;;;16.17;9.63;;;;;;;-3.87;100.00;99019.13;5242877;28;20030;-73
2023/01/18 02:00:54;;;;;;;17.85;9.60;;;;;;;-3.86;100.00;99019.16;5242383;28;20026;-72
2023/01/18 02:03:25;;;;;;;18.03;9.93;;;;;;;-3.92;100.00;99024.13;5242543;28;20033;-73
2023/01/18 02:06:12;;;;;;;16.60;10.57;;;;;;;-3.88;100.00;99020.81;5241929;28;20037;-72
2023/01/18 02:08:46;;;;;;;19.40;10.10;;;;;;;-3.91;100.00;99017.34;5242710;28;20357;-72
2023/01/18 02:11:17;;;;;;;19.63;10.32;;;;;;;-3.93;100.00;99017.34;5241584;28;20036;-72
2023/01/18 02:13:48;;;;;;;21.40;11.37;;;;;;;-3.93;100.00;99012.25;5241327;28;20492;-73
2023/01/18 02:16:44;;;;;;;18.43;10.20;;;;;;;-3.91;100.00;99013.13;5242002;28;20373;-72
2023/01/18 02:19:43;;;;;;;18.52;9.93;;;;;;;-3.94;100.00;99022.41;5241827;28;20113;-71
2023/01/18 02:22:51;;;;;;;15.70;9.15;;;;;;;-3.97;100.00;99019.81;5241734;28;20409;-71
2023/01/18 02:25:57;;;;;;;21.30;11.85;;;;;;;-4.03;100.00;99016.31;5241614;28;20037;-70
2023/01/18 02:28:38;;;;;;;22.05;11.85;;;;;;;-3.96;100.00;99011.31;5241582;28;20025;-70
2023/01/18 02:31:17;;;;;;;23.20;10.73;;;;;;;-3.92;100.00;99018.19;5241549;28;20040;-71
2023/01/18 02:34:00;;;;;;;19.60;10.77;;;;;;;-3.89;100.00;99013.16;5241136;28;20116;-71
2023/01/18 02:37:03;;;;;;;19.45;11.00;;;;;;;-3.85;100.00;99022.56;5241538;28;20076;-71
2023/01/18 02:40:13;;;;;;;22.10;10.73;;;;;;;-3.85;100.00;99025.09;5241797;28;20091;-71
2023/01/18 02:48:38;;;;;;;19.50;11.95;;;;;;;-3.84;100.00;99031.91;5241483;28;20037;-70
2023/01/18 02:51:10;;;;;;;17.75;10.30;;;;;;;-3.92;100.00;99036.88;5241413;28;20026;-71
2023/01/18 02:53:43;;;;;;;18.67;9.82;;;;;;;-3.94;100.00;99041.09;5241076;28;20061;-71
2023/01/18 02:56:30;;;;;;;18.33;10.80;;;;;;;-4.04;100.00;99034.13;5241289;28;20116;-72
2023/01/18 02:59:20;;;;;;;17.08;10.43;;;;;;;-3.99;100.00;99041.81;5241355;28;20029;-71
2023/01/18 03:02:00;;;;;;;18.58;9.95;;;;;;;-4.04;100.00;99036.69;5241415;28;20026;-71
2023/01/18 03:04:43;;;;;;;23.33;11.63;;;;;;;-4.00;100.00;99042.66;5241666;28;20033;-71
2023/01/18 03:07:22;;;;;;;22.98;11.65;;;;;;;-4.04;100.00;99036.69;5243979;28;20443;-71
2023/01/18 03:09:57;;;;;;;18.23;10.80;;;;;;;-4.07;100.00;99041.72;5245559;28;20421;-71
2023/01/18 03:12:46;;;;;;;21.08;12.10;;;;;;;-4.10;100.00;99041.66;5245456;28;20141;-71
2023/01/18 03:15:36;;;;;;;17.52;11.15;;;;;;;-4.15;100.00;99036.47;5245100;28;20029;-71
2023/01/18 03:18:17;;;;;;;21.92;12.05;;;;;;;-4.11;100.00;99042.47;5245124;28;20030;-71
2023/01/18 03:20:54;;;;;;;22.83;12.20;;;;;;;-4.13;100.00;99039.03;5245036;28;20041;-71
2023/01/18 03:23:38;;;;;;;17.70;10.35;;;;;;;-4.24;100.00;99026.13;5245870;28;20045;-71
2023/01/18 03:26:16;;;;;;;23.90;10.90;;;;;;;-4.24;100.00;99041.38;5244918;28;20052;-71
2023/01/18 03:35:02;;;;;;;22.27;12.15;;;;;;;-4.32;100.00;99046.31;5244851;28;20037;-71
2023/01/18 03:37:43;;;;;;;21.95;11.43;;;;;;;-4.36;100.00;99046.22;5245625;28;20389;-72
2023/01/18 03:40:18;;;;;;;24.33;12.43;;;;;;;-4.37;100.00;99045.38;5244352;28;20024;-71
2023/01/18 03:42:58;;;;;;;19.90;11.82;;;;;;;-4.39;100.00;99044.50;5242979;28;20041;-71
2023/01/18 03:45:36;;;;;;;18.77;11.73;;;;;;;-4.44;100.00;99044.41;5244332;28;20091;-71
2023/01/18 03:48:09;;;;;;;17.30;11.40;;;;;;;-4.38;100.00;99061.47;5245122;28;20032;-71
2023/01/18 03:50:59;;;;;;;24.52;13.48;;;;;;;-4.41;100.00;99052.09;5244489;28;20384;-71
2023/01/18 03:53:39;;;;;;;27.95;14.85;;;;;;;-4.38;100.00;99063.16;5244483;28;20029;-71
2023/01/18 03:56:10;;;;;;;20.88;13.50;;;;;;;-4.33;100.00;99067.53;5244154;28;20033;-71
2023/01/18 03:58:43;;;;;;;22.77;11.77;;;;;;;-4.37;100.00;99078.44;5244180;28;20104;-71
2023/01/18 04:01:15;;;;;;;25.58;13.07;;;;;;;-4.36;100.00;99079.28;5243775;28;20452;-71
2023/01/18 04:03:47;;;;;;;22.42;12.70;;;;;;;-4.36;100.00;99086.94;5244009;28;20025;-71
2023/01/18 04:06:21;;;;;;;24.90;13.27;;;;;;;-4.42;100.00;99086.00;5244706;28;20041;-71
2023/01/18 04:08:53;;;;;;;20.77;12.88;;;;;;;-4.36;100.00;99085.25;5242382;28;20030;-71
2023/01/18 04:11:24;;;;;;;22.80;13.93;;;;;;;-4.36;100.00;99097.09;5243664;28;20033;-71
2023/01/18 04:13:55;;;;;;;24.43;13.10;;;;;;;-4.38;100.00;99091.13;5244037;28;20057;-71
2023/01/18 04:16:27;;;;;;;23.20;13.20;;;;;;;-4.41;100.00;99095.34;5243354;28;20033;-71
2023/01/18 04:18:58;;;;;;;21.90;12.57;;;;;;;-4.37;100.00;99096.25;5243782;28;20029;-72
2023/01/18 04:21:29;;;;;;;17.23;11.93;;;;;;;-4.37;100.00;99101.34;5244149;28;20025;-71
2023/01/18 04:24:01;;;;;;;25.40;13.00;;;;;;;-4.40;100.00;99091.09;5243455;28;20134;-71
2023/01/18 04:26:33;;;;;;;22.70;14.00;;;;;;;-4.34;100.00;99103.94;5243695;28;20057;-71
2023/01/18 04:29:05;;;;;;;22.70;12.50;;;;;;;-4.36;100.00;99099.66;5244237;28;20128;-72
2023/01/18 04:31:36;;;;;;;26.77;13.20;;;;;;;-4.41;100.00;99097.88;5243700;28;20568;-71
2023/01/18 04:34:08;;;;;;;22.43;14.87;;;;;;;-4.37;100.00;99108.13;5243612;28;20037;-72
2023/01/18 04:36:39;;;;;;;18.83;12.97;;;;;;;-4.41;100.00;99097.03;5243518;28;20034;-71
2023/01/18 04:39:12;;;;;;;22.80;12.00;;;;;;;-4.33;100.00;99107.34;5243304;28;20057;-72
2023/01/18 04:41:44;;;;;;;18.35;12.57;;;;;;;-4.33;100.00;99103.13;5243897;28;20079;-71
2023/01/18 04:44:16;;;;;;;20.03;13.47;;;;;;;-4.34;100.00;99103.09;5242933;28;20030;-72
2023/01/18 04:46:47;;;;;;;20.27;12.77;;;;;;;-4.34;100.00;99103.09;5243215;28;20041;-71
2023/01/18 04:49:19;;;;;;;26.43;13.13;;;;;;;-4.31;100.00;99114.19;5243741;28;20458;-71
2023/01/18 04:51:50;;;;;;;23.00;14.37;;;;;;;-4.26;100.00;99114.28;5243258;28;20029;-71
2023/01/18 04:54:22;;;;;;;25.47;15.40;;;;;;;-4.27;100.00;99112.56;5241872;28;20538;-71
2023/01/18 04:56:53;;;;;;;22.43;14.00;;;;;;;-4.28;100.00;99115.91;5243384;28;20354;-71
2023/01/18 04:59:24;;;;;;;25.13;14.13;;;;;;;-4.31;100.00;99119.28;5242818;28;20032;-71
2023/01/18 05:01:56;;;;;;;20.77;13.60;;;;;;;-4.28;100.00;99115.91;5243265;28;20041;-71
2023/01/18 05:04:27;;;;;;;23.47;13.83;;;;;;;-4.27;100.00;99115.09;5242820;28;20030;-71
2023/01/18 05:07:01;;;;;;;23.37;14.80;;;;;;;-4.22;100.00;99131.31;5242563;28;20294;-71
2023/01/18 05:09:33;;;;;;;22.95;14.38;;;;;;;-4.24;100.00;99132.97;5243378;28;20326;-71
2023/01/18 05:12:04;;;;;;;23.20;14.27;;;;;;;-4.23;100.00;99135.56;5242794;28;20033;-71
2023/01/18 05:14:35;;;;;;;29.37;14.87;;;;;;;-4.26;100.00;99137.19;5242711;28;20055;-71
2023/01/18 05:17:07;;;;;;;21.20;14.03;;;;;;;-4.26;100.00;99137.19;5242050;28;20037;-72
2023/01/18 05:19:39;;;;;;;22.50;15.13;;;;;;;-4.24;100.00;99135.53;5241367;28;20404;-71
2023/01/18 05:22:10;;;;;;;24.85;14.88;;;;;;;-4.25;100.00;99141.44;5241707;28;20066;-71
2023/01/18 05:24:42;;;;;;;25.63;14.37;;;;;;;-4.25;100.00;99133.78;5241546;28;20080;-71
2023/01/18 05:27:13;;;;;;;21.07;14.90;;;;;;;-4.23;100.00;99147.44;5242164;28;20389;-71
2023/01/18 05:29:47;;;;;;;27.40;14.57;;;;;;;-4.22;100.00;99142.38;5241528;28;20037;-71
2023/01/18 05:32:18;;;;;;;22.10;14.18;;;;;;;-4.21;100.00;99159.34;5242332;28;20026;-72
2023/01/18 05:34:50;;;;;;;24.80;14.43;;;;;;;-4.15;100.00;99147.56;5242164;28;20032;-71
2023/01/18 05:37:21;;;;;;;22.05;14.95;;;;;;;-4.17;100.00;99152.66;5242207;28;20166;-71
2023/01/18 05:39:53;;;;;;;26.93;16.10;;;;;;;-4.18;100.00;99156.00;5242274;28;20025;-71
2023/01/18 05:42:24;;;;;;;26.87;15.37;;;;;;;-4.16;100.00;99159.44;5242133;28;20037;-72
2023/01/18 05:44:55;;;;;;;22.60;15.30;;;;;;;-4.16;100.00;99158.59;5242117;28;20034;-72
2023/01/18 05:47:27;;;;;;;24.83;15.53;;;;;;;-4.18;100.00;99163.63;5242070;28;20491;-72
2023/01/18 05:49:59;;;;;;;29.00;15.83;;;;;;;-4.15;100.00;99173.88;5242658;28;20037;-72
2023/01/18 05:52:30;;;;;;;29.50;16.42;;;;;;;-4.16;100.00;99169.59;5241995;28;20556;-72
2023/01/18 05:55:02;;;;;;;25.73;15.47;;;;;;;-4.21;100.00;99171.22;5241884;28;20108;-72
2023/01/18 05:57:33;;;;;;;23.27;14.90;;;;;;;-4.19;100.00;99174.63;5242193;28;20071;-72
2023/01/18 06:00:05;;;;;;;25.60;16.10;;;;;;;-4.17;100.00;99177.22;5242050;28;20052;-72
2023/01/18 06:02:37;;;;;;;23.58;16.00;;;;;;;-4.19;100.00;99177.19;5241536;28;20068;-72
2023/01/18 06:05:08;;;;;;;24.97;15.90;;;;;;;-4.21;100.00;99173.75;5240513;28;20483;-73
2023/01/18 06:07:41;;;;;;;23.90;15.03;;;;;;;-4.17;100.00;99180.63;5241675;28;20362;-72
2023/01/18 06:10:13;;;;;;;27.73;16.13;;;;;;;-4.17;100.00;99178.09;5242236;28;20108;-72
2023/01/18 06:12:44;;;;;;;26.67;18.15;;;;;;;-4.16;100.00;99192.50;5242225;28;20099;-72
2023/01/18 06:15:16;;;;;;;31.83;17.07;;;;;;;-4.18;100.00;99190.78;5240425;28;20068;-72
2023/01/18 06:17:47;;;;;;;26.03;16.17;;;;;;;-4.13;100.00;99197.66;5241891;28;20108;-72
2023/01/18 06:20:18;;;;;;;26.70;16.57;;;;;;;-4.12;100.00;99195.97;5241755;28;20025;-71
2023/01/18 06:22:50;;;;;;;25.87;16.27;;;;;;;-4.09;100.00;99202.00;5242014;28;20081;-72
2023/01/18 06:25:21;;;;;;;25.63;18.30;;;;;;;-4.03;100.00;99211.44;5241682;28;20155;-71
2023/01/18 06:27:53;;;;;;;25.33;17.23;;;;;;;-4.00;100.00;99210.66;5241589;28;20038;-72
2023/01/18 06:30:24;;;;;;;26.87;17.30;;;;;;;-3.98;100.00;99214.06;5241790;28;20494;-71
2023/01/18 06:32:56;;;;;;;24.30;16.67;;;;;;;-4.00;100.00;99210.66;5241511;28;20492;-72
2023/01/18 06:35:27;;;;;;;23.90;16.43;;;;;;;-3.97;100.00;99234.47;5241655;28;20065;-72
2023/01/18 06:37:59;;;;;;;27.00;16.83;;;;;;;-3.98;100.00;99232.75;5241171;28;20029;-71
2023/01/18 06:40:30;;;;;;;26.93;17.17;;;;;;;-3.99;100.00;99222.53;5242889;28;20430;-72
2023/01/18 06:43:02;;;;;;;22.57;16.13;;;;;;;-3.96;100.00;99225.13;5244338;28;20041;-71
2023/01/18 06:45:34;;;;;;;23.00;16.23;;;;;;;-3.95;100.00;99226.88;5245052;28;20456;-72
2023/01/18 06:48:05;;;;;;;31.53;18.03;;;;;;;-3.86;100.00;99227.06;5245836;28;20372;-71
2023/01/18 06:50:37;;;;;;;26.77;16.43;;;;;;;-3.88;100.00;99233.78;5245835;28;20049;-72
2023/01/18 06:53:08;;;;;;;29.00;17.13;;;;;;;-3.91;100.00;99237.16;5245303;28;20029;-72
2023/01/18 06:55:40;;;;;;;26.83;14.93;;;;;;;-3.88;100.00;99249.06;5245399;28;20033;-72
2023/01/18 06:58:11;;;;;;;20.60;14.70;;;;;;;-3.83;100.00;99246.63;5245342;28;20026;-72
2023/01/18 07:00:42;;;;;;;23.13;15.73;;;;;;;-3.85;100.00;99256.78;5244467;28;20033;-72
2023/01/18 07:03:14;;;;;;;23.37;16.13;;;;;;;-3.83;100.00;99259.34;5245258;28;20152;-72
2023/01/18 07:05:45;;;;;;;25.00;16.33;;;;;;;-3.90;100.00;99260.91;5245229;28;20033;-72
2023/01/18 07:08:19;;;;;;;29.47;16.03;;;;;;;-3.87;100.00;99266.06;5245195;28;20103;-71
2023/01/18 07:10:52;;;;;;;27.33;16.48;;;;;;;-3.90;100.00;99279.59;5245014;28;20075;-72
2023/01/18 07:13:24;;;;;;;28.98;16.77;;;;;;;-3.89;100.00;99267.72;5244678;28;20029;-72
2023/01/18 07:15:58;;;;;;;26.73;16.42;;;;;;;-3.91;100.00;99275.34;5244883;28;20088;-71
2023/01/18 07:18:30;;;;;;;24.00;15.13;;;;;;;-3.93;100.00;99278.66;5245350;28;20084;-72
2023/01/18 07:21:07;;;;;;;26.53;16.60;;;;;;;-3.90;100.00;99281.28;5245297;28;20065;-72
2023/01/18 07:23:40;;;;;;;24.73;16.35;;;;;;;-3.91;100.00;99285.53;5245245;28;20038;-72
2023/01/18 07:26:16;;;;;;;24.95;15.82;;;;;;;-3.87;100.00;99276.25;5244720;28;20041;-72
2023/01/18 07:28:47;;;;;;;24.70;16.38;;;;;;;-3.90;100.00;99288.91;5245592;28;20469;-73
2023/01/18 07:31:20;;;;;;;29.47;17.60;;;;;;;-3.91;100.00;99280.44;5243433;28;20029;-72
2023/01/18 07:33:51;;;;;;;31.73;17.75;;;;;;;-3.89;100.00;99283.00;5244732;28;20025;-73
2023/01/18 07:36:23;;;;;;;29.13;15.90;;;;;;;-3.87;100.00;99292.38;5244584;28;20033;-72
2023/01/18 07:38:54;;;;;;;25.40;15.60;;;;;;;-3.89;100.00;99283.84;5244443;28;20040;-73
2023/01/18 07:41:25;;;;;;;25.07;15.43;;;;;;;-3.88;100.00;99287.25;5243418;28;20117;-73
2023/01/18 07:43:57;;;;;;;25.77;16.57;;;;;;;-3.84;100.00;99299.22;5244312;28;20381;-73
2023/01/18 07:46:28;;;;;;;20.90;14.43;;;;;;;-3.86;100.00;99299.19;5244414;28;20473;-72
2023/01/18 07:49:03;;;;;;;25.57;15.40;;;;;;;-3.83;100.00;99300.09;5244439;28;20021;-72
2023/01/18 07:51:35;;;;;;;20.17;14.80;;;;;;;-3.83;100.00;99315.34;5243704;28;20116;-72
2023/01/18 07:54:06;;;;;;;19.50;13.57;;;;;;;-3.83;100.00;99302.63;5244044;28;20108;-74
2023/01/18 07:56:39;;;;;;;22.20;13.57;;;;;;;-3.79;100.00;99307.81;5244285;28;20033;-72
2023/01/18 07:59:10;;;;;;;23.73;15.45;;;;;;;-3.77;100.00;99308.72;5243918;28;20073;-73
2023/01/18 08:01:41;;;;;;;23.70;15.17;;;;;;;-3.75;100.00;99312.16;5244383;28;20056;-72
2023/01/18 08:04:13;;;;;;;27.33;16.43;;;;;;;-3.70;100.00;99315.66;5244089;28;20040;-72
2023/01/18 08:06:45;;;;;;;25.70;16.73;;;;;;;-3.69;100.00;99311.41;5243818;28;20029;-72
2023/01/18 08:09:16;;;;;;;24.23;15.60;;;;;;;-3.67;100.00;99317.41;5243757;28;20029;-72
2023/01/18 08:11:47;;;;;;;22.67;15.07;;;;;;;-3.64;100.00;99324.25;5242531;28;20508;-72
2023/01/18 08:14:19;;;;;;;21.63;14.97;;;;;;;-3.64;100.00;99330.19;5243965;28;20495;-72
2023/01/18 08:16:51;;;;;;;28.07;15.27;;;;;;;-3.64;100.00;99340.38;5244166;28;20033;-72
2023/01/18 08:19:22;;;;;;;27.43;15.07;;;;;;;-3.59;100.00;99333.72;5243605;28;20025;-72
2023/01/18 08:21:53;;;;;;;24.23;14.93;;;;;;;-3.52;100.00;99344.91;5243513;28;20033;-72
2023/01/18 08:24:25;;;;;;;22.00;14.37;;;;;;;-3.48;100.00;99336.47;5243904;28;20133;-72
2023/01/18 08:26:56;;;;;;;22.07;14.93;;;;;;;-3.44;100.00;99340.81;5242157;28;20120;-72
2023/01/18 08:29:27;;;;;;;23.67;15.07;;;;;;;-3.38;100.00;99338.41;5243100;28;20398;-72
2023/01/18 08:31:59;;;;;;;24.33;15.43;;;;;;;-3.30;100.00;99339.41;5243321;28;20377;-72
2023/01/18 08:34:30;;;;;;;21.47;13.80;;;;;;;-3.27;100.00;99338.59;5243316;28;20033;-72
2023/01/18 08:37:02;;;;;;;24.37;13.97;;;;;;;-3.25;100.00;99344.59;5243278;28;20113;-71
2023/01/18 08:39:33;;;;;;;26.27;14.63;;;;;;;-3.24;100.00;99348.84;5243267;28;20033;-72
2023/01/18 08:42:05;;;;;;;21.63;13.67;;;;;;;-3.22;100.00;99351.41;5243067;28;20037;-72
2023/01/18 08:44:36;;;;;;;25.30;15.07;;;;;;;-3.20;100.00;99353.19;5242939;28;20376;-72
2023/01/18 08:47:08;;;;;;;27.37;14.97;;;;;;;-3.17;100.00;99360.88;5243384;28;20104;-72
2023/01/18 08:49:39;;;;;;;20.70;14.60;;;;;;;-3.13;100.00;99379.66;5243017;28;20033;-72
2023/01/18 08:52:10;;;;;;;22.37;14.53;;;;;;;-3.04;100.00;99366.22;5243503;28;20033;-72
2023/01/18 08:54:42;;;;;;;20.40;13.07;;;;;;;-2.92;100.00;99379.19;5242558;28;20029;-72
2023/01/18 08:57:13;;;;;;;18.43;13.50;;;;;;;-2.82;100.00;99386.22;5242881;28;20103;-72
2023/01/18 08:59:44;;;;;;;22.20;13.67;;;;;;;-2.67;100.00;99380.53;5242579;28;20052;-72
2023/01/18 09:02:16;;;;;;;19.73;12.57;;;;;;;-2.59;100.00;99384.06;5242493;28;20072;-72
2023/01/18 09:04:48;;;;;;;17.50;11.85;;;;;;;-2.52;100.00;99385.03;5243131;28;20034;-72
2023/01/18 09:07:19;;;;;;;17.33;11.73;;;;;;;-2.45;100.00;99386.84;5243106;28;20089;-72
2023/01/18 09:09:51;;;;;;;20.43;12.13;;;;;;;-2.36;100.00;99386.16;5242995;28;20048;-73
2023/01/18 09:12:22;;;;;;;19.37;11.90;;;;;;;-2.32;100.00;99387.91;5242562;28;20414;-72
2023/01/18 09:14:54;;;;;;;16.73;11.53;;;;;;;-2.29;100.00;99393.06;5242548;28;20087;-72
2023/01/18 09:17:25;;;;;;;19.30;11.07;;;;;;;-2.14;100.00;99392.47;5241353;28;20091;-72
2023/01/18 09:19:58;;;;;;;20.27;10.90;;;;;;;-2.05;100.00;99404.50;5241213;28;20026;-72
2023/01/18 09:22:29;;;;;;;17.52;11.05;;;;;;;-1.96;100.00;99396.16;5242616;28;20033;-72
2023/01/18 09:25:01;;;;;;;16.57;10.10;;;;;;;-1.88;100.00;99404.78;5241370;28;20034;-72
2023/01/18 09:27:32;;;;;;;18.33;11.07;;;;;;;-1.72;100.00;99418.66;5242287;28;20030;-72
2023/01/18 09:30:05;;;;;;;15.73;10.07;;;;;;;-1.64;100.00;99414.50;5241025;28;20037;-72
2023/01/18 09:32:36;;;;;;;;;;;;;;;-1.34;100.00;99421.72;5241454;28;20038;-72
2023/01/18 09:35:08;;;;;;;13.00;10.10;;;;;;;-1.29;100.00;99419.22;5241556;28;20016;-72
2023/01/18 09:37:40;;;;;;;16.50;10.43;;;;;;;-1.05;100.00;99422.94;5241757;28;20417;-72
2023/01/18 09:40:20;;;;;;;13.83;10.07;;;;;;;-0.68;100.00;99424.22;5242364;28;20040;-71
2023/01/18 09:42:52;;;;;;;12.95;9.07;;;;;;;-0.42;98.49;99428.75;5242442;28;20445;-71
2023/01/18 09:45:30;;;;;;;13.30;8.83;;;;;;;-0.25;96.75;99434.91;5241953;28;20091;-71
2023/01/18 09:48:15;;;;;;;18.48;9.48;;;;;;;-0.07;96.28;99435.91;5241467;28;20366;-71
2023/01/18 09:50:47;;;;;;;16.63;10.35;;;;;;;-0.12;94.95;99446.09;5241541;28;20025;-71
2023/01/18 09:53:28;;;;;;;13.68;8.93;;;;;;;0.06;94.38;99442.84;5241745;28;20034;-72
2023/01/18 09:56:46;;;;;;;16.48;9.02;;;;;;;0.30;94.13;99454.97;5241987;28;20373;-72
2023/01/18 09:59:31;;;;;;;20.10;9.35;;;;;;;0.62;94.71;99456.91;5239716;28;20037;-72
2023/01/18 10:02:25;;;;;;;23.70;9.63;;;;;;;0.85;94.04;99453.63;5242156;28;20025;-72
2023/01/18 10:05:10;;;;;;;13.52;7.80;;;;;;;1.01;91.16;99457.13;5242053;28;20353;-72
2023/01/18 10:08:03;;;;;;;13.90;9.27;;;;;;;0.99;90.24;99451.13;5241569;28;20384;-72
2023/01/18 10:10:38;;;;;;;12.68;8.18;;;;;;;1.16;89.28;99457.19;5241547;28;20079;-72
2023/01/18 10:13:26;;;;;;;14.50;8.55;;;;;;;1.47;87.99;99461.59;5241101;28;20041;-72
2023/01/18 10:15:58;;;;;;;14.50;8.10;;;;;;;1.52;86.98;99465.03;5241016;28;20135;-72
2023/01/18 10:18:29;;;;;;;13.60;8.53;;;;;;;1.61;86.27;99465.03;5241442;28;20097;-72
2023/01/18 10:21:05;;;;;;;12.47;8.40;;;;;;;1.96;85.83;99470.22;5241975;28;20461;-71
2023/01/18 10:23:57;;;;;;;12.50;8.02;;;;;;;2.03;84.11;99465.09;5241787;28;20057;-71
2023/01/18 10:26:30;;;;;;;13.57;8.77;;;;;;;2.40;83.28;99467.66;5240877;28;20108;-71
2023/01/18 10:29:18;;;;;;;11.20;7.35;;;;;;;2.51;81.94;99474.53;5241069;28;20041;-71
2023/01/18 10:32:13;;;;;;;11.18;7.35;;;;;;;2.51;82.23;99465.94;5241970;28;20021;-71
2023/01/18 10:34:49;;;;;;;12.93;7.65;;;;;;;2.74;80.63;99473.63;5241697;28;20030;-71
2023/01/18 10:37:34;;;;;;;12.10;7.40;;;;;;;2.62;80.18;99478.78;5241474;28;20056;-71
2023/01/18 10:40:09;;;;;;;13.15;8.80;;;;;;;2.80;80.15;99473.63;5240642;28;20026;-71
2023/01/18 10:42:45;;;;;;;9.25;7.13;;;;;;;3.12;79.21;99480.38;5240123;28;20034;-71
2023/01/18 10:45:20;;;;;;;10.80;7.07;;;;;;;3.31;78.12;99470.00;5241314;28;20048;-71
2023/01/18 10:47:53;;;;;;;15.32;7.53;;;;;;;3.57;78.49;99467.31;5241010;28;20035;-71
2023/01/18 10:50:38;;;;;;;14.98;7.28;;;;;;;3.64;75.91;99475.00;5241060;28;20025;-71
2023/01/18 10:53:30;;;;;;;13.45;7.10;;;;;;;3.99;74.70;99473.94;5241088;28;20080;-71
2023/01/18 10:56:06;;;;;;;9.95;7.13;;;;;;;4.46;74.56;99471.84;5240940;28;20029;-71
2023/01/18 10:58:51;;;;;;;10.95;6.60;;;;;;;4.56;72.30;99476.03;5241109;28;20041;-72
2023/01/18 11:01:28;;;;;;;11.48;6.78;;;;;;;4.49;71.96;99466.66;5241861;28;20524;-71
2023/01/18 11:04:23;;;;;;;10.55;6.05;;;;;;;4.72;72.32;99468.16;5241538;28;20475;-71
2023/01/18 11:06:58;;;;;;;10.75;6.47;;;;;;;4.39;71.75;99472.75;5241217;28;20034;-72
2023/01/18 11:09:45;;;;;;;11.30;7.03;;;;;;;4.59;72.04;99482.03;5241199;28;20022;-71
2023/01/18 11:12:40;;;;;;;8.38;6.25;;;;;;;5.20;71.24;99483.97;5241905;28;20081;-72
2023/01/18 11:15:14;;;;;;;10.52;6.45;;;;;;;4.86;68.23;99484.34;5241014;28;20036;-72
2023/01/18 11:18:01;;;;;;;14.70;6.70;;;;;;;5.40;69.23;99481.13;5241215;28;20081;-71
2023/01/18 11:20:33;;;;;;;13.10;6.85;;;;;;;5.12;69.23;99483.22;5240765;28;20037;-72
2023/01/18 11:23:16;;;;;;;12.67;6.97;;;;;;;5.62;68.65;99481.72;5240653;28;20353;-71
2023/01/18 11:26:04;;;;;;;9.65;6.10;;;;;;;5.96;66.32;99483.84;5240843;28;20496;-71
2023/01/18 11:28:43;;;;;;;11.02;6.78;;;;;;;6.07;64.68;99482.84;5244114;28;20052;-72
2023/01/18 11:31:20;;;;;;;10.52;6.13;;;;;;;6.51;64.38;99482.13;5244893;28;20036;-72
2023/01/18 11:34:02;;;;;;;11.25;7.32;;;;;;;6.58;63.43;99485.44;5244812;28;20032;-72
2023/01/18 11:36:41;;;;;;;9.45;5.95;;;;;;;6.34;62.87;99478.94;5244806;28;20120;-72
2023/01/18 11:39:25;;;;;;;9.75;6.28;;;;;;;6.60;63.82;99480.25;5244514;28;20030;-71
2023/01/18 11:42:23;;;;;;;11.52;6.22;;;;;;;6.88;63.44;99475.44;5244418;28;20052;-71
2023/01/18 11:45:04;;;;;;;7.75;5.72;;;;;;;7.05;61.11;99480.28;5244178;28;20029;-71
2023/01/18 11:47:57;;;;;;;10.38;5.50;;;;;;;6.78;62.46;99481.66;5243749;28;20040;-71
2023/01/18 11:50:43;;;;;;;10.27;5.93;;;;;;;6.88;60.85;99478.03;5243047;28;20037;-71
2023/01/18 11:53:31;;;;;;;12.88;6.80;;;;;;;6.98;59.56;99481.28;5245246;28;20437;-71
2023/01/18 11:56:21;;;;;;;9.00;6.10;;;;;;;7.28;60.38;99485.88;5244263;28;20037;-71
2023/01/18 11:58:54;;;;;;;10.15;5.40;;;;;;;7.29;58.10;99482.41;5243803;28;20056;-71
2023/01/18 12:01:46;;;;;;;;;;;;;;;7.61;58.21;99486.03;5244634;28;20152;-71
2023/01/18 12:04:23;;;;;;;7.93;5.25;;;;;;;7.50;57.08;99472.44;5244189;28;19975;-70
2023/01/18 12:07:39;;;;;;;10.93;5.93;;;;;;;7.64;58.55;99488.56;5244097;28;20109;-71
2023/01/18 12:10:23;;;;;;;10.35;5.45;;;;;;;9.00;56.80;99479.25;5244338;28;20029;-70
2023/01/18 12:13:20;;;;;;;12.10;5.30;;;;;;;9.75;53.04;99489.28;5244075;28;20449;-71
2023/01/18 12:15:59;;;;;;;7.75;5.35;;;;;;;9.98;50.31;99498.97;5243710;28;20029;-71
2023/01/18 12:18:55;;;;;;;9.68;5.10;;;;;;;9.30;51.78;99503.56;5243451;28;20037;-71
2023/01/18 12:21:30;;;;;;;8.85;5.55;;;;;;;8.62;54.60;99494.13;5244238;28;20087;-71
2023/01/18 12:24:39;;;;;;;8.88;5.35;;;;;;;9.27;53.52;99501.06;5243527;28;20045;-71
2023/01/18 12:27:20;;;;;;;10.63;5.90;;;;;;;9.02;53.09;99501.72;5243446;28;20035;-71
2023/01/18 12:30:09;;;;;;;7.97;5.07;;;;;;;8.91;52.83;99506.38;5243524;28;20025;-71